Time;durP1;ratioP1;P1;durP2;ratioP2;P2;SDS_P1;SDS_P2;PMS_P1;PMS_P2;Temp;Humidity;BMP_temperature;BMP_pressure;BME280_temperature;BME280_humidity;BME280_pressure;Samples;Min_cycle;Max_cycle;Signal;HPM_P1;HPM_P2
2021/03/12 00:02:07;;;;;;;;;;;;;;;3.94;87.21;100432.78;6233198;22;19906;-74
2021/03/12 00:04:32;;;;;;;;;;;;;;;3.92;87.28;100423.94;6283913;22;20308;-75
2021/03/12 00:06:58;;;;;;;;;;;;;;;3.91;87.05;100425.03;6311442;22;19914;-74
2021/03/12 00:09:23;;;;;;;;;;;;;;;3.90;87.20;100426.09;6233478;22;20378;-74
2021/03/12 00:11:48;;;;;;;;;;;;;;;3.88;87.28;100426.38;6258250;22;19957;-74
2021/03/12 00:14:14;;;;;;;;;;;;;;;3.85;87.24;100420.56;6258564;22;19907;-75
2021/03/12 00:16:39;;;;;;;;;;;;;;;3.83;87.26;100422.72;6253351;22;20057;-74
2021/03/12 00:19:05;;;;;;;;;;;;;;;3.81;87.30;100418.28;6252673;22;19939;-74
2021/03/12 00:21:33;;;;;;;;;;;;;;;3.81;87.26;100423.78;6278996;22;19914;-74
2021/03/12 00:24:00;;;;;;;;;;;;;;;3.79;87.19;100417.72;6254108;22;19907;-74
2021/03/12 00:26:26;;;;;;;;;;;;;;;3.78;87.22;100424.28;6279985;22;19957;-74
2021/03/12 00:28:52;;;;;;;;;;;;;;;3.74;87.37;100423.13;6278906;22;19911;-74
2021/03/12 00:31:17;;;;;;;;;;;;;;;3.73;87.35;100418.75;6252858;22;19919;-74
2021/03/12 00:33:43;;;;;;;;;;;;;;;3.71;87.43;100423.63;6252354;22;19986;-74
2021/03/12 00:36:08;;;;;;;;;;;;;;;3.72;87.31;100417.06;6253493;22;19911;-74
2021/03/12 00:38:34;;;;;;;;;;;;;;;3.70;87.31;100423.88;6252979;22;19946;-74
2021/03/12 00:41:00;;;;;;;;;;;;;;;3.69;87.28;100427.72;6253033;22;19986;-74
2021/03/12 00:43:25;;;;;;;;;;;;;;;3.65;87.56;100426.53;6278678;22;19946;-74
2021/03/12 00:46:01;;;;;;;;;;;;;;;3.65;87.61;100430.16;6253284;22;19911;-74
2021/03/12 00:48:29;;;;;;;;;;;;;;;3.62;87.52;100424.28;6278071;22;20308;-75
2021/03/12 00:50:54;;;;;;;;;;;;;;;3.60;87.62;100421.00;6278365;22;19911;-75
2021/03/12 00:53:20;;;;;;;;;;;;;;;3.57;87.50;100416.81;6279070;22;19974;-74
2021/03/12 00:55:45;;;;;;;;;;;;;;;3.57;87.46;100405.84;6278182;22;19914;-74
2021/03/12 00:58:11;;;;;;;;;;;;;;;3.55;87.51;100408.81;6252726;22;19916;-74
2021/03/12 01:00:37;;;;;;;;;;;;;;;3.56;87.69;100404.16;6279070;22;19962;-74
2021/03/12 01:03:03;;;;;;;;;;;;;;;3.55;87.59;100402.50;6252138;22;19939;-74
2021/03/12 01:05:28;;;;;;;;;;;;;;;3.56;87.49;100410.47;6278782;22;19919;-74
2021/03/12 01:07:54;;;;;;;;;;;;;;;3.52;87.65;100414.00;6279006;22;19930;-74
2021/03/12 01:10:19;;;;;;;;;;;;;;;3.51;87.59;100415.91;6252760;22;19907;-74
2021/03/12 01:12:45;;;;;;;;;;;;;;;3.53;87.57;100410.16;6227466;22;19961;-75
2021/03/12 01:15:13;;;;;;;;;;;;;;;3.50;87.48;100418.91;6279312;22;20293;-75
2021/03/12 01:17:41;;;;;;;;;;;;;;;3.48;87.44;100419.16;6252406;22;19915;-74
2021/03/12 01:20:10;;;;;;;;;;;;;;;3.46;87.55;100415.00;6252591;22;19941;-74
2021/03/12 01:22:36;;;;;;;;;;;;;;;3.46;87.44;100418.56;6279293;22;19974;-74
2021/03/12 01:25:05;;;;;;;;;;;;;;;3.43;87.42;100429.22;6253125;22;19911;-75
2021/03/12 01:27:38;;;;;;;;;;;;;;;3.43;87.45;100423.75;6252694;22;19907;-74
2021/03/12 01:30:13;;;;;;;;;;;;;;;3.38;87.46;100418.16;6252917;22;19918;-74
2021/03/12 01:32:38;;;;;;;;;;;;;;;3.34;87.49;100413.16;6303879;22;19916;-74
2021/03/12 01:35:07;;;;;;;;;;;;;;;3.36;87.53;100415.66;6277985;22;19945;-74
2021/03/12 01:37:33;;;;;;;;;;;;;;;3.34;87.48;100417.78;6280093;22;19986;-74
2021/03/12 01:39:58;;;;;;;;;;;;;;;3.32;87.52;100415.31;6278640;22;19907;-74
2021/03/12 01:42:26;;;;;;;;;;;;;;;3.32;87.50;100423.56;6253298;22;19913;-74
2021/03/12 01:44:52;;;;;;;;;;;;;;;3.30;87.39;100420.22;6252379;22;19907;-74
2021/03/12 01:47:20;;;;;;;;;;;;;;;3.29;87.49;100424.06;6278150;22;19911;-74
2021/03/12 01:49:45;;;;;;;;;;;;;;;3.29;87.53;100413.06;6278787;22;19907;-74
2021/03/12 01:52:11;;;;;;;;;;;;;;;3.28;87.56;100416.06;6255028;22;19911;-74
2021/03/12 01:54:36;;;;;;;;;;;;;;;3.27;87.48;100419.88;6280400;22;19914;-74
2021/03/12 01:57:02;;;;;;;;;;;;;;;3.25;87.40;100408.31;6254357;22;19991;-74
2021/03/12 01:59:28;;;;;;;;;;;;;;;3.24;87.59;100412.97;6282073;22;19947;-74
2021/03/12 02:01:53;;;;;;;;;;;;;;;3.22;87.49;100409.63;6254609;22;20347;-74
2021/03/12 02:04:19;;;;;;;;;;;;;;;3.23;87.63;100399.50;6279486;22;19914;-74
2021/03/12 02:06:44;;;;;;;;;;;;;;;3.22;87.50;100397.84;6280339;22;19911;-74
2021/03/12 02:09:09;;;;;;;;;;;;;;;3.18;87.57;100392.03;6254724;22;19914;-74
2021/03/12 02:11:36;;;;;;;;;;;;;;;3.17;87.58;100401.31;6279845;22;19907;-74
2021/03/12 02:14:02;;;;;;;;;;;;;;;3.15;87.97;100398.00;6254776;22;19908;-74
2021/03/12 02:16:32;;;;;;;;;;;;;;;3.18;87.66;100391.19;6254807;22;19915;-74
2021/03/12 02:19:00;;;;;;;;;;;;;;;3.11;87.76;100378.44;6279860;22;19917;-74
2021/03/12 02:21:26;;;;;;;;;;;;;;;3.13;87.67;100386.44;6281613;22;19907;-74
2021/03/12 02:23:51;;;;;;;;;;;;;;;3.08;87.73;100370.72;6280562;22;20279;-74
2021/03/12 02:26:16;;;;;;;;;;;;;;;3.06;87.96;100374.78;6279474;22;19938;-74
2021/03/12 02:28:42;;;;;;;;;;;;;;;3.04;87.90;100375.03;6281572;22;20237;-75
2021/03/12 02:31:09;;;;;;;;;;;;;;;3.03;87.90;100369.78;6279550;22;19911;-74
2021/03/12 02:33:34;;;;;;;;;;;;;;;3.04;87.97;100368.72;6279135;22;19982;-75
2021/03/12 02:36:00;;;;;;;;;;;;;;;3.00;88.25;100373.84;6254062;22;19911;-74
2021/03/12 02:38:25;;;;;;;;;;;;;;;2.97;88.04;100362.56;6280162;22;19908;-74
2021/03/12 02:40:51;;;;;;;;;;;;;;;2.95;88.16;100357.31;6281107;22;19911;-74
2021/03/12 02:43:17;;;;;;;;;;;;;;;2.99;88.11;100357.66;6280323;22;19910;-74
2021/03/12 02:45:45;;;;;;;;;;;;;;;2.97;88.27;100351.56;6254571;22;19907;-74
2021/03/12 02:48:11;;;;;;;;;;;;;;;2.96;88.12;100345.28;6278876;22;19908;-75
2021/03/12 02:50:36;;;;;;;;;;;;;;;2.94;88.00;100352.06;6254527;22;19915;-74
2021/03/12 02:53:02;;;;;;;;;;;;;;;2.93;88.10;100351.25;6281534;22;20240;-74
2021/03/12 02:55:27;;;;;;;;;;;;;;;2.91;88.21;100348.75;6253840;22;19907;-74
2021/03/12 02:57:52;;;;;;;;;;;;;;;2.93;88.16;100351.25;6279460;22;19911;-74
2021/03/12 03:00:18;;;;;;;;;;;;;;;2.89;88.09;100342.66;6254363;22;19961;-74
2021/03/12 03:02:43;;;;;;;;;;;;;;;2.86;88.26;100340.41;6278465;22;19953;-74
2021/03/12 03:05:09;;;;;;;;;;;;;;;2.91;88.10;100340.50;6254460;22;19907;-74
2021/03/12 03:07:34;;;;;;;;;;;;;;;2.88;88.07;100342.94;6279912;22;20006;-74
2021/03/12 03:09:59;;;;;;;;;;;;;;;2.84;88.27;100337.13;6253565;22;20276;-74
2021/03/12 03:12:25;;;;;;;;;;;;;;;2.83;88.29;100335.44;6279541;22;19941;-74
2021/03/12 03:14:51;;;;;;;;;;;;;;;2.85;88.35;100337.94;6254750;22;19914;-74
2021/03/12 03:17:17;;;;;;;;;;;;;;;2.81;88.38;100332.09;6278681;22;19915;-74
2021/03/12 03:19:43;;;;;;;;;;;;;;;2.81;88.23;100329.34;6279423;22;19946;-74
2021/03/12 03:22:08;;;;;;;;;;;;;;;2.84;88.22;100330.78;6281297;22;20241;-74
2021/03/12 03:24:34;;;;;;;;;;;;;;;2.84;88.26;100326.16;6280616;22;19907;-74
2021/03/12 03:26:59;;;;;;;;;;;;;;;2.82;88.14;100328.28;6280972;22;19961;-74
2021/03/12 03:29:24;;;;;;;;;;;;;;;2.84;88.17;100328.03;6280136;22;19907;-74
2021/03/12 03:31:50;;;;;;;;;;;;;;;2.81;88.17;100326.59;6278171;22;19918;-75
2021/03/12 03:34:15;;;;;;;;;;;;;;;2.80;88.10;100327.69;6279025;22;19919;-74
2021/03/12 03:36:41;;;;;;;;;;;;;;;2.78;88.13;100324.38;6279557;22;20134;-74
2021/03/12 03:39:07;;;;;;;;;;;;;;;2.76;88.21;100329.28;6279129;22;20468;-74
2021/03/12 03:41:32;;;;;;;;;;;;;;;2.76;88.24;100320.19;6279585;22;19908;-74
2021/03/12 03:43:57;;;;;;;;;;;;;;;2.77;88.39;100324.63;6228726;22;20279;-74
2021/03/12 03:46:23;;;;;;;;;;;;;;;2.72;88.27;100325.34;6279010;22;19914;-74
2021/03/12 03:48:48;;;;;;;;;;;;;;;2.72;88.32;100319.88;6253543;22;19958;-74
2021/03/12 03:51:14;;;;;;;;;;;;;;;2.71;88.28;100322.88;6279378;22;19907;-74
2021/03/12 03:53:39;;;;;;;;;;;;;;;2.67;88.33;100309.66;6253581;22;19955;-74
2021/03/12 03:56:05;;;;;;;;;;;;;;;2.68;88.46;100311.31;6279023;22;19915;-74
2021/03/12 03:58:31;;;;;;;;;;;;;;;2.64;88.66;100312.03;6253899;22;19912;-74
2021/03/12 04:00:56;;;;;;;;;;;;;;;2.66;88.56;100313.47;6253415;22;19938;-74
2021/03/12 04:03:22;;;;;;;;;;;;;;;2.65;88.57;100308.25;6278470;22;19993;-74
2021/03/12 04:05:47;;;;;;;;;;;;;;;2.64;88.38;100301.06;6279459;22;19908;-74
2021/03/12 04:08:13;;;;;;;;;;;;;;;2.60;88.62;100302.66;6253518;22;20316;-74
2021/03/12 04:10:38;;;;;;;;;;;;;;;2.60;88.79;100310.88;6253139;22;19942;-74
2021/03/12 04:13:03;;;;;;;;;;;;;;;2.60;88.72;100302.66;6253323;22;19914;-74
2021/03/12 04:15:29;;;;;;;;;;;;;;;2.57;88.73;100305.91;6254568;22;19907;-74
2021/03/12 04:17:54;;;;;;;;;;;;;;;2.62;88.80;100300.50;6309801;22;19911;-74
2021/03/12 04:20:20;;;;;;;;;;;;;;;2.58;88.75;100307.56;6284559;22;19911;-74
2021/03/12 04:22:45;;;;;;;;;;;;;;;2.59;88.66;100303.72;6257969;22;19914;-74
2021/03/12 04:25:10;;;;;;;;;;;;;;;2.60;88.55;100297.19;6311244;22;19914;-74
2021/03/12 04:27:36;;;;;;;;;;;;;;;2.57;88.59;100301.25;6233482;22;19922;-74
2021/03/12 04:30:03;;;;;;;;;;;;;;;2.57;88.47;100298.50;6284045;22;19918;-74
2021/03/12 04:32:28;;;;;;;;;;;;;;;2.57;88.63;100292.19;6309913;22;20240;-74
2021/03/12 04:34:53;;;;;;;;;;;;;;;2.57;88.85;100290.28;6311771;22;19907;-74
2021/03/12 04:37:19;;;;;;;;;;;;;;;2.56;88.85;100285.84;6283771;22;19940;-74
2021/03/12 04:39:44;;;;;;;;;;;;;;;2.54;89.00;100285.28;6232654;22;19914;-74
2021/03/12 04:42:10;;;;;;;;;;;;;;;2.54;88.88;100290.78;6284497;22;19957;-74
2021/03/12 04:44:36;;;;;;;;;;;;;;;2.54;88.75;100287.22;6283634;22;19956;-74
2021/03/12 04:47:02;;;;;;;;;;;;;;;2.54;89.02;100285.28;6283871;22;19911;-74
2021/03/12 04:49:27;;;;;;;;;;;;;;;2.51;88.71;100283.03;6284205;22;19914;-74
2021/03/12 04:51:55;;;;;;;;;;;;;;;2.52;88.72;100281.94;6283233;22;19907;-74
2021/03/12 04:54:21;;;;;;;;;;;;;;;2.52;88.74;100278.38;6258320;22;20415;-74
2021/03/12 04:56:46;;;;;;;;;;;;;;;2.51;89.12;100273.97;6311326;22;19910;-74
2021/03/12 04:59:12;;;;;;;;;;;;;;;2.51;88.88;100265.75;6309423;22;19918;-74
2021/03/12 05:01:38;;;;;;;;;;;;;;;2.47;89.00;100270.88;6258028;22;19907;-74
2021/03/12 05:04:04;;;;;;;;;;;;;;;2.47;88.93;100274.47;6284062;22;19907;-74
2021/03/12 05:06:30;;;;;;;;;;;;;;;2.44;88.88;100283.19;6257829;22;19914;-74
2021/03/12 05:08:55;;;;;;;;;;;;;;;2.48;88.96;100286.28;6283407;22;19907;-74
2021/03/12 05:11:21;;;;;;;;;;;;;;;2.44;88.95;100280.44;6283889;22;19907;-74
2021/03/12 05:13:46;;;;;;;;;;;;;;;2.46;88.86;100277.47;6283298;22;19906;-74
2021/03/12 05:16:12;;;;;;;;;;;;;;;2.44;88.95;100282.34;6283249;22;19918;-74
2021/03/12 05:18:37;;;;;;;;;;;;;;;2.44;88.80;100282.34;6309589;22;20291;-74
2021/03/12 05:21:02;;;;;;;;;;;;;;;2.42;89.01;100282.63;6310548;22;19906;-73
2021/03/12 05:23:28;;;;;;;;;;;;;;;2.43;88.90;100283.44;6258189;22;19907;-74
2021/03/12 05:25:53;;;;;;;;;;;;;;;2.46;89.04;100280.19;6311857;22;19906;-74
2021/03/12 05:28:19;;;;;;;;;;;;;;;2.41;88.83;100283.66;6234891;22;19913;-75
2021/03/12 05:30:44;;;;;;;;;;;;;;;2.41;88.78;100283.66;6284665;22;19970;-74
2021/03/12 05:33:09;;;;;;;;;;;;;;;2.40;88.99;100287.50;6260214;22;19918;-74
2021/03/12 05:35:35;;;;;;;;;;;;;;;2.40;88.90;100276.53;6259839;22;19925;-74
2021/03/12 05:38:00;;;;;;;;;;;;;;;2.39;88.97;100274.84;6234312;22;19911;-74
2021/03/12 05:40:26;;;;;;;;;;;;;;;2.40;88.87;100283.94;6260379;22;19969;-76
2021/03/12 05:42:51;;;;;;;;;;;;;;;2.41;88.93;100271.88;6312650;22;19911;-74
2021/03/12 05:45:17;;;;;;;;;;;;;;;2.37;89.45;100271.56;6285299;22;19907;-74
2021/03/12 05:47:43;;;;;;;;;;;;;;;2.39;88.92;100269.38;6260154;22;19910;-74
2021/03/12 05:50:08;;;;;;;;;;;;;;;2.34;89.02;100269.31;6312698;22;19984;-74
2021/03/12 05:52:33;;;;;;;;;;;;;;;2.33;89.05;100267.63;6285137;22;19913;-74
2021/03/12 05:54:59;;;;;;;;;;;;;;;2.31;89.25;100268.94;6285603;22;19906;-74
2021/03/12 05:57:25;;;;;;;;;;;;;;;2.30;89.70;100264.56;6285636;22;19914;-74
2021/03/12 05:59:50;;;;;;;;;;;;;;;2.24;89.77;100272.66;6285102;22;19907;-74
2021/03/12 06:02:16;;;;;;;;;;;;;;;2.27;89.50;100265.88;6285332;22;19907;-74
2021/03/12 06:04:43;;;;;;;;;;;;;;;2.27;89.59;100267.78;6285096;22;20434;-74
2021/03/12 06:07:13;;;;;;;;;;;;;;;2.24;89.48;100269.09;6284943;22;19907;-74
2021/03/12 06:09:38;;;;;;;;;;;;;;;2.22;89.48;100272.06;6285290;22;19906;-74
2021/03/12 06:12:04;;;;;;;;;;;;;;;2.24;89.58;100267.19;6285085;22;20303;-74
2021/03/12 06:14:59;;;;;;;;;;;;;;;2.22;89.50;100269.34;6259504;22;19907;-74
2021/03/12 06:17:31;;;;;;;;;;;;;;;2.22;89.50;100272.06;6271282;22;20271;-74
2021/03/12 06:19:56;;;;;;;;;;;;;;;2.23;89.43;100272.94;6259946;22;20374;-75
2021/03/12 06:22:22;;;;;;;;;;;;;;;2.22;89.45;100268.50;6310744;22;19915;-74
2021/03/12 06:24:47;;;;;;;;;;;;;;;2.20;89.55;100270.66;6259690;22;19907;-74
2021/03/12 06:27:29;;;;;;;;;;;;;;;2.21;89.41;100275.06;6259669;22;19942;-74
2021/03/12 06:29:58;;;;;;;;;;;;;;;2.21;89.53;100272.34;6259188;22;19937;-74
2021/03/12 06:32:44;;;;;;;;;;;;;;;2.22;89.73;100263.03;6283786;22;19915;-74
2021/03/12 06:35:13;;;;;;;;;;;;;;;2.20;89.74;100259.69;6311058;22;19914;-74
2021/03/12 06:37:38;;;;;;;;;;;;;;;2.19;89.74;100258.03;6311720;22;19911;-74
2021/03/12 06:40:10;;;;;;;;;;;;;;;2.19;89.86;100263.53;6284721;22;19982;-73
2021/03/12 06:42:36;;;;;;;;;;;;;;;2.21;89.68;100256.72;6285626;22;20308;-73
2021/03/12 06:45:02;;;;;;;;;;;;;;;2.20;89.79;100256.94;6259648;22;19910;-73
2021/03/12 06:47:27;;;;;;;;;;;;;;;2.21;90.00;100250.41;6284263;22;19914;-74
2021/03/12 06:49:53;;;;;;;;;;;;;;;2.20;90.05;100249.59;6285152;22;19914;-74
2021/03/12 06:52:18;;;;;;;;;;;;;;;2.17;90.06;100241.00;6285041;22;19907;-73
2021/03/12 06:54:51;;;;;;;;;;;;;;;2.14;90.61;100241.50;6284654;22;19951;-73
2021/03/12 06:57:20;;;;;;;;;;;;;;;2.21;90.69;100239.47;6284940;22;19930;-74
2021/03/12 06:59:45;;;;;;;;;;;;;;;2.24;90.57;100241.69;6310870;22;19969;-73
2021/03/12 07:02:10;;;;;;;;;;;;;;;2.23;90.96;100238.13;6284382;22;19907;-73
2021/03/12 07:04:37;;;;;;;;;;;;;;;2.28;90.94;100237.38;6259459;22;19914;-73
2021/03/12 07:07:03;;;;;;;;;;;;;;;2.34;91.34;100250.13;6259635;22;19911;-74
2021/03/12 07:09:28;;;;;;;;;;;;;;;2.37;92.25;100249.63;6258983;22;20213;-73
2021/03/12 07:11:57;;;;;;;;;;;;;;;2.42;92.21;100246.97;6259329;22;19907;-73
2021/03/12 07:14:23;;;;;;;;;;;;;;;2.50;92.07;100253.13;6312271;22;19906;-74
2021/03/12 07:16:51;;;;;;;;;;;;;;;2.56;92.45;100252.94;6283807;22;19922;-73
2021/03/12 07:19:17;;;;;;;;;;;;;;;2.66;92.60;100246.84;6310446;22;20301;-74
2021/03/12 07:21:43;;;;;;;;;;;;;;;2.76;92.61;100243.41;6285366;22;19907;-74
2021/03/12 07:24:10;;;;;;;;;;;;;;;2.85;92.58;100244.69;6284204;22;20344;-73
2021/03/12 07:26:46;;;;;;;;;;;;;;;2.96;92.34;100245.69;6259186;22;20516;-73
2021/03/12 07:29:16;;;;;;;;;;;;;;;3.05;92.67;100250.47;6285025;22;20254;-75
2021/03/12 07:31:42;;;;;;;;;;;;;;;3.21;92.25;100247.97;6257590;22;19911;-73
2021/03/12 07:34:11;;;;;;;;;;;;;;;3.29;92.11;100248.38;6311675;22;20240;-74
2021/03/12 07:36:38;;;;;;;;;;;;;;;3.42;91.96;100254.59;6284563;22;19911;-74
2021/03/12 07:39:03;;;;;;;;;;;;;;;3.54;91.69;100252.56;6284165;22;19914;-74
2021/03/12 07:41:29;;;;;;;;;;;;;;;3.67;91.44;100245.84;6258632;22;20244;-74
2021/03/12 07:43:54;;;;;;;;;;;;;;;3.78;91.53;100253.97;6284901;22;19907;-74
2021/03/12 07:46:20;;;;;;;;;;;;;;;3.90;91.61;100239.28;6233441;22;19930;-73
2021/03/12 07:48:45;;;;;;;;;;;;;;;4.02;91.76;100237.22;6283807;22;19907;-74
2021/03/12 07:51:11;;;;;;;;;;;;;;;4.16;92.26;100238.50;6284846;22;20347;-74
2021/03/12 07:53:47;;;;;;;;;;;;;;;4.29;91.57;100230.91;6258328;22;20228;-74
2021/03/12 07:56:14;;;;;;;;;;;;;;;4.44;91.50;100233.81;6283866;22;19915;-74
2021/03/12 07:58:50;;;;;;;;;;;;;;;4.59;91.17;100227.63;6311943;22;19968;-74
2021/03/12 08:01:16;;;;;;;;;;;;;;;4.75;91.10;100228.59;6233490;22;19907;-74
2021/03/12 08:03:42;;;;;;;;;;;;;;;4.90;90.45;100228.72;6258654;22;19910;-74
2021/03/12 08:06:31;;;;;;;;;;;;;;;5.07;90.79;100226.66;6312135;22;19913;-74
2021/03/12 08:08:56;;;;;;;;;;;;;;;5.26;91.72;100234.47;6271959;22;19907;-74
2021/03/12 08:11:24;;;;;;;;;;;;;;;5.40;90.61;100232.91;6258332;22;19910;-73
2021/03/12 08:13:49;;;;;;;;;;;;;;;5.54;89.96;100236.00;6311670;22;20243;-74
2021/03/12 08:16:15;;;;;;;;;;;;;;;5.63;89.21;100241.84;6284180;22;19961;-73
2021/03/12 08:18:40;;;;;;;;;;;;;;;5.75;89.97;100234.19;6306471;22;20320;-73
2021/03/12 08:21:27;;;;;;;;;;;;;;;5.84;89.54;100240.84;6284046;22;19907;-73
2021/03/12 08:23:52;;;;;;;;;;;;;;;5.95;89.34;100239.81;6312018;22;19921;-73
2021/03/12 08:26:36;;;;;;;;;;;;;;;6.06;89.44;100242.63;6309873;22;19935;-73
2021/03/12 08:29:22;;;;;;;;;;;;;;;6.18;89.16;100237.69;6311076;22;19915;-73
2021/03/12 08:31:47;;;;;;;;;;;;;;;6.34;89.74;100255.09;6292352;22;19911;-73
2021/03/12 08:34:42;;;;;;;;;;;;;;;6.47;90.22;100244.38;6283955;22;20236;-73
2021/03/12 08:37:26;;;;;;;;;;;;;;;6.64;89.93;100252.41;6288974;22;19911;-74
2021/03/12 08:40:10;;;;;;;;;;;;;;;6.77;88.97;100237.25;6283891;22;19982;-73
2021/03/12 08:42:54;;;;;;;;;;;;;;;6.92;89.10;100234.47;6258609;22;19911;-73
2021/03/12 08:45:33;;;;;;;;;;;;;;;7.07;87.48;100246.59;6284014;22;19907;-73
2021/03/12 08:48:05;;;;;;;;;;;;;;;7.23;88.93;100262.06;6257656;22;19969;-73
2021/03/12 08:50:31;;;;;;;;;;;;;;;7.34;87.25;100252.66;6310688;22;19981;-74
2021/03/12 08:52:56;;;;;;;;;;;;;;;7.48;88.28;100243.78;6284273;22;19907;-73
2021/03/12 08:55:27;;;;;;;;;;;;;;;7.60;87.93;100239.63;6310620;22;19917;-74
2021/03/12 08:58:11;;;;;;;;;;;;;;;7.76;87.77;100245.91;6234451;22;19918;-74
2021/03/12 09:00:36;;;;;;;;;;;;;;;7.89;86.54;100246.44;6258329;22;19907;-74
2021/03/12 09:03:23;;;;;;;;;;;;;;;7.99;86.98;100238.91;6283867;22;19960;-74
2021/03/12 09:05:52;;;;;;;;;;;;;;;8.16;87.00;100246.88;6284555;22;20304;-74
2021/03/12 09:08:24;;;;;;;;;;;;;;;8.29;86.83;100237.09;6258302;22;19914;-73
2021/03/12 09:10:53;;;;;;;;;;;;;;;8.39;86.72;100241.78;6258289;22;19953;-73
2021/03/12 09:13:21;;;;;;;;;;;;;;;8.51;86.99;100245.03;6232693;22;19957;-74
2021/03/12 09:15:49;;;;;;;;;;;;;;;8.62;85.78;100235.53;6233743;22;19929;-74
2021/03/12 09:18:15;;;;;;;;;;;;;;;8.70;83.68;100242.41;6232640;22;19943;-73
2021/03/12 09:20:41;;;;;;;;;;;;;;;8.78;84.01;100235.44;6284113;22;19910;-73
2021/03/12 09:23:08;;;;;;;;;;;;;;;8.88;84.91;100232.56;6310765;22;19931;-74
2021/03/12 09:25:52;;;;;;;;;;;;;;;8.97;83.16;100239.16;6260032;22;20305;-74
2021/03/12 09:28:17;;;;;;;;;;;;;;;9.04;83.45;100247.13;6233066;22;19907;-73
2021/03/12 09:30:46;;;;;;;;;;;;;;;9.09;82.62;100241.53;6310839;22;19911;-73
2021/03/12 09:33:37;;;;;;;;;;;;;;;9.18;84.89;100240.59;6259171;22;19910;-73
2021/03/12 09:36:04;;;;;;;;;;;;;;;9.24;82.19;100246.09;6285334;22;19908;-74
2021/03/12 09:38:39;;;;;;;;;;;;;;;9.29;82.52;100244.13;6233938;22;19911;-73
2021/03/12 09:41:12;;;;;;;;;;;;;;;9.40;83.95;100242.06;6235057;22;19926;-74
2021/03/12 09:43:37;;;;;;;;;;;;;;;9.53;85.31;100248.88;6312849;22;20316;-74
2021/03/12 09:46:03;;;;;;;;;;;;;;;9.58;83.29;100252.41;6310358;22;19907;-73
2021/03/12 09:48:31;;;;;;;;;;;;;;;9.64;80.92;100258.75;6311953;22;19941;-74
2021/03/12 09:50:57;;;;;;;;;;;;;;;9.68;81.11;100262.56;6311228;22;20342;-73
2021/03/12 09:53:22;;;;;;;;;;;;;;;9.74;82.40;100255.84;6312215;22;19907;-75
2021/03/12 09:55:47;;;;;;;;;;;;;;;9.77;81.46;100255.25;6284735;22;19906;-74
2021/03/12 09:58:15;;;;;;;;;;;;;;;9.84;82.63;100254.91;6259588;22;19910;-74
2021/03/12 10:00:40;;;;;;;;;;;;;;;9.87;79.89;100245.16;6259496;22;19910;-74
2021/03/12 10:03:08;;;;;;;;;;;;;;;9.89;79.29;100248.44;6284512;22;19951;-74
2021/03/12 10:05:34;;;;;;;;;;;;;;;9.88;79.83;100236.53;6285280;22;20041;-74
2021/03/12 10:08:03;;;;;;;;;;;;;;;9.88;79.90;100233.75;6284923;22;19907;-74
2021/03/12 10:10:29;;;;;;;;;;;;;;;9.93;79.58;100235.66;6285079;22;20029;-74
2021/03/12 10:12:55;;;;;;;;;;;;;;;9.96;79.12;100233.09;6287034;22;19907;-74
2021/03/12 10:15:22;;;;;;;;;;;;;;;9.96;79.11;100219.22;6286863;22;20307;-74
2021/03/12 10:17:47;;;;;;;;;;;;;;;10.00;79.22;100222.22;6260594;22;19922;-74
2021/03/12 10:20:17;;;;;;;;;;;;;;;10.03;78.98;100227.22;6261809;22;19911;-74
2021/03/12 10:22:43;;;;;;;;;;;;;;;10.07;82.39;100223.53;6286632;22;19961;-74
2021/03/12 10:25:15;;;;;;;;;;;;;;;10.14;78.67;100225.09;6286647;22;19907;-74
2021/03/12 10:27:51;;;;;;;;;;;;;;;10.18;79.02;100210.34;6314194;22;19907;-74
2021/03/12 10:30:18;;;;;;;;;;;;;;;10.26;79.75;100208.84;6312840;22;19922;-74
2021/03/12 10:32:45;;;;;;;;;;;;;;;10.35;79.25;100206.25;6260752;22;19918;-75
2021/03/12 10:35:14;;;;;;;;;;;;;;;10.43;79.13;100211.13;6286666;22;19907;-74
2021/03/12 10:37:39;;;;;;;;;;;;;;;10.56;80.50;100206.75;6286771;22;19911;-74
2021/03/12 10:40:08;;;;;;;;;;;;;;;10.68;82.29;100198.81;6286102;22;19928;-74
2021/03/12 10:42:37;;;;;;;;;;;;;;;10.80;80.11;100196.38;6236046;22;19985;-74
2021/03/12 10:45:09;;;;;;;;;;;;;;;10.92;79.24;100207.00;6260989;22;19911;-73
2021/03/12 10:47:35;;;;;;;;;;;;;;;11.05;78.83;100192.34;6285709;22;19907;-74
2021/03/12 10:50:17;;;;;;;;;;;;;;;11.14;77.33;100184.13;6235713;22;19941;-74
2021/03/12 10:52:42;;;;;;;;;;;;;;;11.23;76.69;100184.25;6261700;22;19910;-74
2021/03/12 10:55:08;;;;;;;;;;;;;;;11.28;75.86;100185.00;6260372;22;19974;-74
2021/03/12 10:57:35;;;;;;;;;;;;;;;11.33;75.30;100186.84;6286360;22;19911;-74
2021/03/12 11:00:00;;;;;;;;;;;;;;;11.33;75.00;100179.31;6286754;22;19974;-73
2021/03/12 11:02:33;;;;;;;;;;;;;;;11.36;75.14;100186.22;6312782;22;19907;-74
2021/03/12 11:04:58;;;;;;;;;;;;;;;11.34;75.20;100182.94;6260836;22;19907;-74
2021/03/12 11:07:26;;;;;;;;;;;;;;;11.32;75.77;100191.56;6236544;22;19914;-73
2021/03/12 11:09:51;;;;;;;;;;;;;;;11.34;75.63;100182.94;6286211;22;19914;-74
2021/03/12 11:12:19;;;;;;;;;;;;;;;11.32;74.90;100180.47;6261363;22;19911;-74
2021/03/12 11:14:44;;;;;;;;;;;;;;;11.31;75.11;100177.97;6286708;22;19947;-74
2021/03/12 11:17:10;;;;;;;;;;;;;;;11.29;74.37;100169.94;6280164;22;19915;-74
2021/03/12 11:19:38;;;;;;;;;;;;;;;11.24;74.67;100178.38;6280767;22;20302;-74
2021/03/12 11:22:03;;;;;;;;;;;;;;;11.23;74.64;100167.56;6282867;22;19942;-73
2021/03/12 11:24:29;;;;;;;;;;;;;;;11.17;75.06;100166.81;6229869;22;20339;-74
2021/03/12 11:26:56;;;;;;;;;;;;;;;11.19;75.18;100150.69;6280576;22;19907;-74
2021/03/12 11:29:22;;;;;;;;;;;;;;;11.18;74.51;100154.59;6282752;22;19971;-74
2021/03/12 11:31:47;;;;;;;;;;;;;;;11.18;74.60;100140.69;6253899;22;20325;-74
2021/03/12 11:34:12;;;;;;;;;;;;;;;11.20;76.58;100144.00;6280528;22;19934;-73
2021/03/12 11:36:38;;;;;;;;;;;;;;;11.24;75.62;100136.69;6280953;22;20237;-74
2021/03/12 11:39:03;;;;;;;;;;;;;;;11.31;76.87;100139.03;6281979;22;19972;-75
2021/03/12 11:41:29;;;;;;;;;;;;;;;11.47;78.91;100137.63;6255023;22;20328;-74
2021/03/12 11:43:54;;;;;;;;;;;;;;;11.67;79.58;100135.53;6282925;22;19991;-74
2021/03/12 11:46:19;;;;;;;;;;;;;;;11.89;78.95;100115.34;6280508;22;19986;-75
2021/03/12 11:48:48;;;;;;;;;;;;;;;12.07;78.61;100118.00;6282044;22;19914;-75
2021/03/12 11:51:14;;;;;;;;;;;;;;;12.23;78.07;100126.81;6280121;22;19911;-74
2021/03/12 11:53:39;;;;;;;;;;;;;;;12.36;77.07;100130.69;6255101;22;20376;-74
2021/03/12 11:56:04;;;;;;;;;;;;;;;12.49;76.09;100127.00;6279989;22;19923;-74
2021/03/12 11:58:30;;;;;;;;;;;;;;;12.61;75.41;100142.34;6255525;22;19907;-74
2021/03/12 12:00:55;;;;;;;;;;;;;;;12.68;74.58;100143.53;6254418;22;19907;-74
2021/03/12 12:03:21;;;;;;;;;;;;;;;12.77;74.09;100134.41;6280410;22;19954;-74
2021/03/12 12:05:46;;;;;;;;;;;;;;;12.84;73.86;100140.34;6282384;22;19914;-74
2021/03/12 12:08:11;;;;;;;;;;;;;;;12.92;73.91;100131.22;6280048;22;20371;-74
2021/03/12 12:10:37;;;;;;;;;;;;;;;13.00;74.82;100122.09;6254768;22;19907;-74
2021/03/12 12:13:02;;;;;;;;;;;;;;;13.08;74.60;100126.06;6254767;22;19994;-74
2021/03/12 12:15:29;;;;;;;;;;;;;;;13.17;72.10;100121.34;6255350;22;19914;-74
2021/03/12 12:17:59;;;;;;;;;;;;;;;13.23;71.90;100119.25;6312800;22;19946;-74
2021/03/12 12:20:24;;;;;;;;;;;;;;;13.30;72.10;100102.91;6313019;22;19907;-74
2021/03/12 12:22:50;;;;;;;;;;;;;;;13.37;72.02;100103.25;6312504;22;19914;-74
2021/03/12 12:25:15;;;;;;;;;;;;;;;13.39;71.49;100096.22;6285564;22;19939;-74
2021/03/12 12:27:41;;;;;;;;;;;;;;;13.44;71.39;100103.63;6285737;22;19914;-74
2021/03/12 12:30:06;;;;;;;;;;;;;;;13.46;71.38;100101.34;6285329;22;20319;-74
2021/03/12 12:32:31;;;;;;;;;;;;;;;13.51;71.37;100103.97;6284295;22;19911;-74
2021/03/12 12:34:57;;;;;;;;;;;;;;;13.54;71.76;100103.34;6285112;22;19952;-74
2021/03/12 12:37:23;;;;;;;;;;;;;;;13.58;72.26;100103.50;6259765;22;19933;-74
2021/03/12 12:39:48;;;;;;;;;;;;;;;13.63;70.70;100097.78;6259837;22;19907;-74
2021/03/12 12:42:13;;;;;;;;;;;;;;;13.63;69.99;100083.81;6285707;22;19907;-74
2021/03/12 12:44:39;;;;;;;;;;;;;;;13.63;70.51;100108.94;6259393;22;19907;-74
2021/03/12 12:47:04;;;;;;;;;;;;;;;13.61;70.87;100114.81;6284940;22;19906;-74